Time;durP1;ratioP1;P1;durP2;ratioP2;P2;SDS_P1;SDS_P2;PMS_P1;PMS_P2;Temp;Humidity;BMP_temperature;BMP_pressure;BME280_temperature;BME280_humidity;BME280_pressure;Samples;Min_cycle;Max_cycle;Signal;HPM_P1;HPM_P2
2022/09/30 00:00:08;;;;;;;;;4.20;4.20;28.20;99.90;;;;;;4991642;28;8848;-62
2022/09/30 00:02:40;;;;;;;;;2.00;2.00;28.10;99.90;;;;;;4996410;28;8896;-59
2022/09/30 00:05:13;;;;;;;;;4.00;4.00;27.90;99.90;;;;;;4999960;28;8870;-60
2022/09/30 00:07:43;;;;;;;;;4.00;4.00;27.80;99.90;;;;;;5005974;28;8873;-57
2022/09/30 00:10:16;;;;;;;;;4.20;4.20;27.80;99.90;;;;;;4980546;28;8851;-57
2022/09/30 00:12:49;;;;;;;;;4.00;4.00;27.70;99.90;;;;;;4987330;28;8890;-58
2022/09/30 00:15:21;;;;;;;;;5.00;5.00;27.60;99.90;;;;;;5001540;28;8848;-58
2022/09/30 00:17:54;;;;;;;;;5.00;5.00;27.50;99.90;;;;;;4984002;28;8834;-59
2022/09/30 00:20:27;;;;;;;;;5.25;5.25;27.50;99.90;;;;;;4995077;28;8846;-57
2022/09/30 00:22:56;;;;;;;;;2.00;2.00;27.50;99.90;;;;;;4984125;28;8888;-62
2022/09/30 00:25:30;;;;;;;;;4.50;4.50;27.50;99.90;;;;;;4996723;28;9772;-62
2022/09/30 00:27:59;;;;;;;;;6.00;6.00;27.40;99.90;;;;;;4992241;28;8858;-63
2022/09/30 00:30:29;;;;;;;;;4.00;4.00;27.30;99.90;;;;;;4996968;28;8824;-61
2022/09/30 00:33:01;;;;;;;;;4.50;4.50;27.20;99.90;;;;;;4993992;28;9176;-62
2022/09/30 00:35:31;;;;;;;;;4.50;4.50;27.20;99.90;;;;;;5008470;28;8882;-62
2022/09/30 00:38:04;;;;;;;;;4.00;4.00;27.20;99.90;;;;;;5006774;28;8925;-61
2022/09/30 00:40:38;;;;;;;;;5.00;5.00;27.30;99.90;;;;;;5014036;28;8858;-62
2022/09/30 00:43:37;;;;;;;;;7.25;6.00;27.30;99.90;;;;;;5004135;28;8834;-58
2022/09/30 00:46:31;;;;;;;;;7.25;7.25;27.40;99.90;;;;;;4994569;28;8871;-58
2022/09/30 00:49:12;;;;;;;;;4.00;4.00;27.50;99.90;;;;;;5002578;28;8846;-58
2022/09/30 00:51:48;;;;;;;;;5.00;5.00;27.50;99.90;;;;;;4983191;28;8833;-58
2022/09/30 00:54:29;;;;;;;;;5.00;5.00;27.50;99.90;;;;;;4998037;28;8838;-58
2022/09/30 00:57:08;;;;;;;;;5.25;5.25;27.40;99.90;;;;;;4995030;28;8831;-58
2022/09/30 00:59:44;;;;;;;;;4.75;3.75;27.40;99.90;;;;;;4989635;28;8828;-63
2022/09/30 01:02:17;;;;;;;;;5.00;5.00;27.30;99.90;;;;;;5001775;28;8817;-62
2022/09/30 01:04:48;;;;;;;;;5.75;5.75;27.20;99.90;;;;;;5000092;28;9626;-59
2022/09/30 01:07:19;;;;;;;;;5.25;5.25;27.20;99.90;;;;;;4990367;28;8850;-57
2022/09/30 01:09:52;;;;;;;;;6.25;6.25;27.10;99.90;;;;;;5007398;28;8826;-59
2022/09/30 01:12:27;;;;;;;;;5.00;5.00;27.10;99.90;;;;;;5008897;28;8878;-59
2022/09/30 01:14:59;;;;;;;;;4.50;4.50;26.90;99.90;;;;;;4998569;28;8868;-61
2022/09/30 01:17:41;;;;;;;;;5.00;5.00;26.80;99.90;;;;;;4995353;28;9084;-62
2022/09/30 01:20:10;;;;;;;;;6.75;5.00;26.70;99.90;;;;;;4997004;28;9442;-62
2022/09/30 01:23:02;;;;;;;;;6.00;6.00;26.70;99.90;;;;;;5000236;28;8867;-61
2022/09/30 01:26:09;;;;;;;;;4.25;4.25;26.70;99.90;;;;;;4981034;28;8861;-61
2022/09/30 01:29:00;;;;;;;;;3.00;3.00;26.80;99.90;;;;;;4995315;28;8857;-58
2022/09/30 01:31:53;;;;;;;;;4.25;4.25;26.70;99.90;;;;;;4981701;28;8901;-59
2022/09/30 01:35:04;;;;;;;;;4.00;4.00;26.60;99.90;;;;;;4997574;28;8874;-62
2022/09/30 01:38:01;;;;;;;;;3.25;3.25;26.60;99.90;;;;;;4991035;28;8868;-61
2022/09/30 01:40:52;;;;;;;;;5.50;4.00;26.60;99.90;;;;;;4998320;28;8825;-59
2022/09/30 01:43:46;;;;;;;;;4.00;4.00;26.50;99.90;;;;;;4976116;28;8842;-62
2022/09/30 01:46:36;;;;;;;;;4.25;4.25;26.50;99.90;;;;;;5000190;28;8872;-63
2022/09/30 01:49:34;;;;;;;;;4.75;4.00;26.40;99.90;;;;;;5003090;28;8836;-57
2022/09/30 01:52:40;;;;;;;;;3.75;3.75;26.40;99.90;;;;;;4995826;28;8837;-55
2022/09/30 01:55:24;;;;;;;;;4.75;4.75;26.40;99.90;;;;;;4998451;28;8838;-58
2022/09/30 01:58:10;;;;;;;;;4.00;4.00;26.30;99.90;;;;;;4988789;28;8850;-61
2022/09/30 02:00:51;;;;;;;;;4.25;4.25;26.20;99.90;;;;;;4990802;28;8893;-63
2022/09/30 02:03:26;;;;;;;;;4.00;4.00;26.20;99.90;;;;;;4990460;28;8848;-56
2022/09/30 02:06:01;;;;;;;;;4.25;4.25;26.10;99.90;;;;;;4996950;28;8862;-57
2022/09/30 02:09:06;;;;;;;;;2.00;2.00;26.10;99.90;;;;;;4997358;28;8932;-58
2022/09/30 02:11:42;;;;;;;;;4.00;4.00;26.10;99.90;;;;;;4998217;28;9249;-58
2022/09/30 02:14:38;;;;;;;;;5.00;5.00;25.90;99.90;;;;;;4960083;28;8835;-58
2022/09/30 02:17:22;;;;;;;;;5.00;5.00;25.70;99.90;;;;;;4980986;28;9646;-57
2022/09/30 02:20:09;;;;;;;;;3.00;3.00;25.50;99.90;;;;;;4978349;28;8832;-57
2022/09/30 02:23:25;;;;;;;;;4.50;4.50;25.40;99.90;;;;;;4987148;28;9580;-60
2022/09/30 02:26:10;;;;;;;;;7.00;5.25;25.40;99.90;;;;;;4991524;28;8879;-61
2022/09/30 02:29:02;;;;;;;;;4.00;4.00;25.50;99.90;;;;;;4993605;28;9001;-56
2022/09/30 02:31:37;;;;;;;;;3.00;3.00;25.50;99.90;;;;;;4990918;28;8830;-57
2022/09/30 02:34:19;;;;;;;;;6.00;5.50;25.60;99.90;;;;;;4989218;28;8839;-62
2022/09/30 02:37:17;;;;;;;;;4.00;4.00;25.50;99.90;;;;;;4981750;28;8844;-66
2022/09/30 02:40:01;;;;;;;;;5.00;5.00;25.50;99.90;;;;;;4986105;28;8862;-62
2022/09/30 02:42:32;;;;;;;;;6.00;6.00;25.50;99.90;;;;;;4992051;28;8881;-62
2022/09/30 02:45:11;;;;;;;;;4.25;4.25;25.40;99.90;;;;;;5002145;28;8825;-66
2022/09/30 02:48:31;;;;;;;;;6.75;4.75;25.30;99.90;;;;;;4993013;28;8845;-57
2022/09/30 02:51:32;;;;;;;;;5.00;4.50;25.20;99.90;;;;;;4991925;28;9595;-57
2022/09/30 02:54:19;;;;;;;;;7.25;5.75;25.20;99.90;;;;;;4999007;28;8860;-56
2022/09/30 02:57:17;;;;;;;;;5.00;5.00;25.10;99.90;;;;;;4998673;28;8877;-63
2022/09/30 02:59:51;;;;;;;;;5.75;5.75;25.20;99.90;;;;;;4997859;28;8854;-62
2022/09/30 03:02:23;;;;;;;;;5.00;5.00;25.10;99.90;;;;;;4999733;28;9924;-65
2022/09/30 03:04:53;;;;;;;;;4.00;4.00;25.00;99.90;;;;;;4992700;28;8849;-61
2022/09/30 03:07:27;;;;;;;;;5.00;5.00;25.00;99.90;;;;;;4998412;28;8869;-61
2022/09/30 03:09:57;;;;;;;;;4.00;4.00;25.00;99.90;;;;;;4999069;28;8838;-62
2022/09/30 03:12:41;;;;;;;;;5.00;5.00;25.00;99.90;;;;;;4998750;28;8845;-61
2022/09/30 03:15:43;;;;;;;;;5.00;5.00;25.00;99.90;;;;;;4995847;28;8869;-65
2022/09/30 03:18:28;;;;;;;;;5.00;5.00;24.90;99.90;;;;;;4968041;28;8850;-55
2022/09/30 03:21:46;;;;;;;;;5.00;5.00;24.90;99.90;;;;;;4999861;28;8848;-56
2022/09/30 03:24:33;;;;;;;;;6.25;5.75;24.90;99.90;;;;;;4946695;28;9610;-56
2022/09/30 03:27:13;;;;;;;;;3.25;3.25;24.90;99.90;;;;;;4999241;28;8852;-59
2022/09/30 03:29:59;;;;;;;;;6.00;6.00;24.90;99.90;;;;;;5005605;28;8872;-56
2022/09/30 03:32:49;;;;;;;;;6.75;6.75;24.90;99.90;;;;;;4989439;28;8843;-56
2022/09/30 03:35:52;;;;;;;;;4.25;4.25;24.80;99.90;;;;;;5003707;28;8862;-65
2022/09/30 03:38:53;;;;;;;;;5.00;5.00;24.60;99.90;;;;;;4970076;28;8844;-65
2022/09/30 03:41:36;;;;;;;;;5.25;5.25;24.70;99.90;;;;;;5000343;28;8870;-66
2022/09/30 03:44:21;;;;;;;;;9.00;7.50;24.60;99.90;;;;;;4985425;28;8869;-65
2022/09/30 03:47:13;;;;;;;;;5.00;5.00;24.60;99.90;;;;;;4982660;28;8833;-66
2022/09/30 03:50:01;;;;;;;;;7.00;7.00;24.60;99.90;;;;;;4999840;28;8882;-64
2022/09/30 03:52:36;;;;;;;;;5.75;5.75;24.60;99.90;;;;;;4982228;28;8889;-64
2022/09/30 03:55:10;;;;;;;;;6.00;6.00;24.70;99.90;;;;;;4998969;28;8880;-56
2022/09/30 03:57:43;;;;;;;;;7.25;7.25;24.60;99.90;;;;;;4978710;28;8884;-57
2022/09/30 04:00:14;;;;;;;;;8.25;7.00;24.40;99.90;;;;;;4999860;28;9815;-57
2022/09/30 04:02:45;;;;;;;;;5.50;5.50;24.50;99.90;;;;;;4983493;28;8908;-65
2022/09/30 04:05:20;;;;;;;;;6.75;6.75;24.40;99.90;;;;;;4977835;28;8857;-64
2022/09/30 04:07:50;;;;;;;;;6.00;6.00;24.30;99.90;;;;;;4995485;28;8869;-65
2022/09/30 04:10:22;;;;;;;;;7.00;7.00;24.30;99.90;;;;;;4999636;28;8905;-64
2022/09/30 04:12:58;;;;;;;;;6.75;6.75;24.40;99.90;;;;;;5002757;28;8873;-57
2022/09/30 04:15:29;;;;;;;;;8.00;8.00;24.40;99.90;;;;;;5002719;28;8842;-57
2022/09/30 04:18:03;;;;;;;;;8.00;8.00;24.30;99.90;;;;;;4983848;28;8949;-65
2022/09/30 04:20:32;;;;;;;;;6.00;6.00;24.30;99.90;;;;;;4999356;28;8880;-66
2022/09/30 04:23:03;;;;;;;;;3.50;3.50;24.40;99.90;;;;;;4995472;28;8837;-57
2022/09/30 04:25:35;;;;;;;;;7.50;7.50;24.30;99.90;;;;;;5011057;28;8877;-57
2022/09/30 04:28:05;;;;;;;;;7.25;7.25;24.20;99.90;;;;;;4998514;28;8892;-57
2022/09/30 04:30:39;;;;;;;;;7.00;7.00;24.30;99.90;;;;;;4990451;28;8885;-57
2022/09/30 04:33:11;;;;;;;;;7.50;7.50;24.20;99.90;;;;;;4992119;28;8846;-57
2022/09/30 04:35:43;;;;;;;;;7.00;7.00;24.20;99.90;;;;;;5003746;28;9001;-56
2022/09/30 04:38:19;;;;;;;;;7.00;7.00;24.10;99.90;;;;;;4999006;28;8868;-61
2022/09/30 04:40:56;;;;;;;;;8.00;8.00;24.20;99.90;;;;;;4985617;28;8871;-61
2022/09/30 04:43:28;;;;;;;;;7.75;7.75;24.10;99.90;;;;;;4998007;28;8845;-62
2022/09/30 04:45:57;;;;;;;;;8.00;8.00;23.90;99.90;;;;;;4972359;28;8914;-62
2022/09/30 04:48:30;;;;;;;;;8.50;8.50;24.00;99.90;;;;;;5003333;28;8838;-57
2022/09/30 04:51:00;;;;;;;;;8.00;8.00;24.00;99.90;;;;;;5005303;28;8827;-57
2022/09/30 04:53:32;;;;;;;;;7.50;7.50;23.90;99.90;;;;;;4984112;28;8857;-62
2022/09/30 04:56:04;;;;;;;;;8.25;7.50;23.70;99.90;;;;;;5000915;28;8861;-62
2022/09/30 04:58:34;;;;;;;;;8.25;8.25;23.70;99.90;;;;;;4998974;28;8854;-61
2022/09/30 05:01:12;;;;;;;;;6.00;6.00;23.60;99.90;;;;;;4995905;28;8833;-61
2022/09/30 05:03:43;;;;;;;;;8.25;8.25;23.60;99.90;;;;;;4998561;28;8826;-61
2022/09/30 05:06:14;;;;;;;;;8.00;8.00;23.50;99.90;;;;;;5003979;28;8854;-62
2022/09/30 05:08:46;;;;;;;;;7.50;7.50;23.40;99.90;;;;;;4998034;28;8830;-62
2022/09/30 05:11:19;;;;;;;;;7.00;7.00;23.30;99.90;;;;;;4985659;28;8826;-62
2022/09/30 05:13:50;;;;;;;;;8.25;8.25;23.30;99.90;;;;;;4962979;28;8852;-62
2022/09/30 05:16:22;;;;;;;;;8.75;8.75;23.30;99.90;;;;;;4985339;28;8880;-62
2022/09/30 05:18:52;;;;;;;;;7.50;7.50;23.20;99.90;;;;;;5005498;28;8827;-56
2022/09/30 05:21:25;;;;;;;;;6.75;6.75;23.10;99.90;;;;;;5003032;28;8838;-57
2022/09/30 05:23:57;;;;;;;;;9.25;9.00;23.10;99.90;;;;;;4998700;28;8935;-57
2022/09/30 05:26:29;;;;;;;;;9.00;9.00;23.20;99.90;;;;;;4983675;28;8857;-57
2022/09/30 05:28:59;;;;;;;;;7.25;7.25;23.10;99.90;;;;;;4995862;28;8882;-56
2022/09/30 05:31:31;;;;;;;;;8.50;8.50;23.00;99.90;;;;;;5003216;28;8961;-56
2022/09/30 05:34:03;;;;;;;;;8.75;8.75;23.00;99.90;;;;;;4994588;28;8845;-56
2022/09/30 05:36:34;;;;;;;;;9.25;8.00;23.00;99.90;;;;;;4999276;28;8944;-57
2022/09/30 05:39:05;;;;;;;;;8.75;8.75;22.90;99.90;;;;;;5001858;28;8910;-63
2022/09/30 05:41:36;;;;;;;;;8.00;7.25;23.00;99.90;;;;;;5006018;28;8845;-62
2022/09/30 05:44:09;;;;;;;;;6.75;6.75;22.80;99.90;;;;;;5001889;28;8845;-57
2022/09/30 05:46:46;;;;;;;;;9.25;8.50;22.90;99.90;;;;;;4998954;28;8834;-56
2022/09/30 05:49:18;;;;;;;;;9.00;9.00;22.70;99.90;;;;;;4993106;28;8856;-61
2022/09/30 05:51:49;;;;;;;;;8.00;8.00;22.60;99.90;;;;;;5003270;28;8884;-60
2022/09/30 05:54:19;;;;;;;;;5.00;5.00;22.50;99.90;;;;;;5001432;28;9011;-62
2022/09/30 05:56:54;;;;;;;;;4.25;4.25;22.60;99.90;;;;;;5002345;28;8850;-62
2022/09/30 05:59:25;;;;;;;;;7.00;7.00;22.50;99.90;;;;;;4998551;28;8829;-57
2022/09/30 06:01:55;;;;;;;;;7.25;7.25;22.60;99.90;;;;;;4984668;28;8848;-57
2022/09/30 06:04:26;;;;;;;;;7.25;7.25;22.50;99.90;;;;;;5012781;28;8836;-62
2022/09/30 06:06:58;;;;;;;;;9.00;9.00;22.50;99.90;;;;;;4983247;28;8828;-62
2022/09/30 06:09:32;;;;;;;;;7.00;7.00;22.40;99.90;;;;;;4998958;28;8834;-57
2022/09/30 06:12:05;;;;;;;;;8.25;8.25;22.40;99.90;;;;;;4985271;28;9010;-57
2022/09/30 06:14:37;;;;;;;;;6.50;6.50;22.40;99.90;;;;;;4981711;28;8859;-56
2022/09/30 06:17:07;;;;;;;;;8.25;8.25;22.30;99.90;;;;;;4997392;28;8880;-56
2022/09/30 06:19:39;;;;;;;;;8.50;7.25;22.40;99.90;;;;;;4997942;28;8868;-56
2022/09/30 06:22:09;;;;;;;;;8.25;8.25;22.50;99.90;;;;;;4977037;28;8842;-57
2022/09/30 06:24:40;;;;;;;;;8.25;8.25;22.50;99.90;;;;;;4993342;28;9016;-61
2022/09/30 06:27:13;;;;;;;;;8.50;8.00;22.40;99.90;;;;;;4996708;28;8844;-61
2022/09/30 06:29:45;;;;;;;;;9.00;9.00;22.30;99.90;;;;;;4999679;28;8835;-57
2022/09/30 06:32:16;;;;;;;;;5.25;3.75;22.20;99.90;;;;;;5003423;28;8826;-56
2022/09/30 06:34:46;;;;;;;;;5.25;5.25;22.20;99.90;;;;;;5004232;28;8866;-61
2022/09/30 06:37:17;;;;;;;;;7.25;7.25;22.30;99.90;;;;;;4998271;28;8867;-61
2022/09/30 06:39:47;;;;;;;;;7.25;7.25;22.00;99.90;;;;;;4978715;28;8850;-57
2022/09/30 06:42:19;;;;;;;;;8.50;8.50;21.80;99.90;;;;;;4975159;28;9032;-56
2022/09/30 06:44:51;;;;;;;;;8.25;8.25;21.70;99.90;;;;;;4993519;28;8840;-61
2022/09/30 06:47:21;;;;;;;;;7.25;7.25;21.80;99.90;;;;;;4983338;28;9877;-62
2022/09/30 06:49:57;;;;;;;;;7.75;7.75;21.90;99.90;;;;;;4996323;28;8842;-63
2022/09/30 06:52:29;;;;;;;;;7.25;7.25;22.00;99.90;;;;;;4998689;28;8837;-62
2022/09/30 06:54:58;;;;;;;;;5.00;5.00;22.00;99.90;;;;;;4993304;28;8860;-62
2022/09/30 06:57:31;;;;;;;;;8.75;8.50;21.80;99.90;;;;;;5002087;28;9782;-62
2022/09/30 07:00:01;;;;;;;;;8.00;8.00;21.90;99.90;;;;;;4999825;28;8853;-61
2022/09/30 07:02:33;;;;;;;;;5.25;5.25;21.90;99.90;;;;;;5002297;28;8869;-62
2022/09/30 07:05:05;;;;;;;;;8.00;7.00;21.90;99.90;;;;;;5002829;28;8845;-62
2022/09/30 07:07:41;;;;;;;;;8.25;8.25;22.00;99.90;;;;;;4992310;28;8878;-60
2022/09/30 07:10:12;;;;;;;;;9.00;9.00;21.90;99.90;;;;;;5010751;28;8855;-57
2022/09/30 07:12:43;;;;;;;;;8.00;8.00;21.80;99.90;;;;;;4999179;28;8884;-57
2022/09/30 07:15:18;;;;;;;;;7.00;7.00;21.70;99.90;;;;;;5009538;28;8845;-56
2022/09/30 07:18:00;;;;;;;;;8.25;8.25;21.80;99.90;;;;;;5000168;28;8842;-56
2022/09/30 07:20:31;;;;;;;;;7.25;7.25;21.60;99.90;;;;;;4999862;28;8882;-56
2022/09/30 07:23:03;;;;;;;;;6.50;6.50;21.70;99.90;;;;;;4987659;28;8862;-56
2022/09/30 07:25:35;;;;;;;;;9.00;9.00;21.60;99.90;;;;;;5007324;28;9423;-57
2022/09/30 07:28:05;;;;;;;;;10.00;8.00;21.70;99.90;;;;;;5000372;28;9026;-61
2022/09/30 07:30:36;;;;;;;;;8.00;7.25;21.60;99.90;;;;;;4987455;28;9580;-62
2022/09/30 07:33:06;;;;;;;;;8.50;8.50;21.60;99.90;;;;;;4985619;28;8893;-63
2022/09/30 07:35:36;;;;;;;;;8.75;8.75;21.60;99.90;;;;;;4983906;28;8926;-62
2022/09/30 07:38:06;;;;;;;;;8.75;8.75;21.60;99.90;;;;;;5003371;28;8837;-57
2022/09/30 07:40:41;;;;;;;;;8.00;8.00;21.60;99.90;;;;;;4983321;28;8983;-56
2022/09/30 07:43:15;;;;;;;;;7.75;7.75;21.50;99.90;;;;;;4997968;28;8870;-62
2022/09/30 07:45:48;;;;;;;;;7.25;7.25;21.50;99.90;;;;;;4991831;28;8939;-61
2022/09/30 07:51:35;;;;;;;;;7.50;7.50;21.40;99.90;;;;;;4963527;28;9004;-61
2022/09/30 07:54:32;;;;;;;;;7.50;7.50;21.40;99.90;;;;;;5003088;28;8873;-62
2022/09/30 07:57:09;;;;;;;;;7.75;7.75;21.30;99.90;;;;;;4998563;28;9438;-61
2022/09/30 07:59:42;;;;;;;;;10.00;10.00;21.40;99.90;;;;;;4998871;28;8849;-61
2022/09/30 08:02:18;;;;;;;;;8.00;8.00;21.10;99.90;;;;;;5004491;28;8912;-62
2022/09/30 08:04:49;;;;;;;;;9.00;9.00;21.00;99.90;;;;;;5000150;28;8846;-56
2022/09/30 08:07:22;;;;;;;;;7.00;7.00;21.20;99.90;;;;;;5001132;28;8870;-56
2022/09/30 08:09:54;;;;;;;;;9.75;9.75;21.10;99.90;;;;;;4983718;28;8826;-62
2022/09/30 08:12:24;;;;;;;;;9.25;9.25;21.10;99.90;;;;;;4979968;28;8854;-62
2022/09/30 08:14:55;;;;;;;;;8.00;8.00;21.20;99.90;;;;;;4983957;28;8850;-62
2022/09/30 08:17:26;;;;;;;;;9.00;9.00;21.00;99.90;;;;;;5001075;28;8857;-61
2022/09/30 08:19:56;;;;;;;;;6.00;6.00;21.00;99.90;;;;;;4986428;28;8828;-61
2022/09/30 08:22:28;;;;;;;;;8.00;8.00;21.10;99.90;;;;;;5001119;28;8849;-62
2022/09/30 08:24:58;;;;;;;;;7.00;7.00;21.10;99.90;;;;;;4997540;28;8850;-61
2022/09/30 08:27:27;;;;;;;;;7.50;7.50;20.90;99.90;;;;;;4974999;28;9203;-61
2022/09/30 08:29:59;;;;;;;;;8.75;8.75;20.90;99.90;;;;;;5004111;28;8857;-61
2022/09/30 08:32:32;;;;;;;;;8.75;8.75;20.90;99.90;;;;;;5000150;28;8896;-62
2022/09/30 08:35:02;;;;;;;;;9.00;9.00;20.80;99.90;;;;;;4998988;28;8873;-55
2022/09/30 08:37:33;;;;;;;;;8.25;8.25;20.90;99.90;;;;;;4982875;28;8860;-56
2022/09/30 08:40:04;;;;;;;;;8.25;8.00;20.90;99.90;;;;;;4980333;28;8862;-61
2022/09/30 08:43:02;;;;;;;;;8.00;8.00;20.80;99.90;;;;;;4995544;28;8836;-59
2022/09/30 08:46:09;;;;;;;;;7.75;7.75;20.80;99.90;;;;;;5001470;28;8836;-61
2022/09/30 08:48:39;;;;;;;;;6.00;6.00;20.80;99.90;;;;;;4994933;28;8846;-62
2022/09/30 08:51:27;;;;;;;;;6.00;6.00;20.70;99.90;;;;;;4994742;28;8880;-61
2022/09/30 08:54:01;;;;;;;;;6.75;6.75;20.70;99.90;;;;;;4990031;28;8954;-55
2022/09/30 08:56:33;;;;;;;;;7.50;7.50;20.80;99.90;;;;;;4996542;28;8853;-56
2022/09/30 08:59:25;;;;;;;;;7.00;7.00;20.70;99.90;;;;;;4998579;28;9027;-61
2022/09/30 09:02:32;;;;;;;;;6.00;6.00;20.70;99.90;;;;;;5000565;28;8846;-63
2022/09/30 09:05:08;;;;;;;;;6.25;6.25;20.70;99.90;;;;;;4969960;28;8866;-61
2022/09/30 09:07:53;;;;;;;;;7.00;7.00;20.60;99.90;;;;;;5004488;28;8817;-59
2022/09/30 09:11:07;;;;;;;;;9.00;7.50;20.60;99.90;;;;;;4995611;28;8892;-61
2022/09/30 09:13:59;;;;;;;;;7.50;7.50;20.40;99.90;;;;;;4996035;28;8862;-57
2022/09/30 09:16:47;;;;;;;;;8.00;6.75;20.50;99.90;;;;;;5002875;28;8874;-57
2022/09/30 09:19:24;;;;;;;;;4.25;4.25;20.40;99.90;;;;;;4996211;28;9575;-56
2022/09/30 09:22:01;;;;;;;;;6.75;6.75;20.50;99.90;;;;;;4994611;28;9573;-55
2022/09/30 09:24:46;;;;;;;;;7.25;7.25;20.40;99.90;;;;;;4995262;28;8878;-61
2022/09/30 09:27:48;;;;;;;;;6.00;6.00;20.40;99.90;;;;;;4991786;28;8834;-61
2022/09/30 09:30:28;;;;;;;;;5.00;5.00;20.30;99.90;;;;;;4987808;28;8896;-57
2022/09/30 09:33:17;;;;;;;;;5.25;5.25;20.30;99.90;;;;;;4992956;28;8844;-56
2022/09/30 09:35:53;;;;;;;;;6.25;6.25;20.40;99.90;;;;;;4996787;28;8861;-56
2022/09/30 09:38:34;;;;;;;;;6.00;6.00;20.30;99.90;;;;;;5000010;28;8837;-62
2022/09/30 09:41:26;;;;;;;;;6.50;6.50;20.30;99.90;;;;;;4999902;28;8840;-61
2022/09/30 09:44:26;;;;;;;;;5.25;5.25;20.20;99.90;;;;;;4996000;28;9531;-55
2022/09/30 09:47:14;;;;;;;;;6.75;5.50;20.20;99.90;;;;;;4995678;28;8905;-56
2022/09/30 09:50:02;;;;;;;;;4.00;4.00;20.20;99.90;;;;;;4972736;28;8862;-56
2022/09/30 09:52:41;;;;;;;;;3.00;3.00;20.30;99.90;;;;;;5002268;28;8844;-55
2022/09/30 09:55:15;;;;;;;;;4.25;4.25;20.20;99.90;;;;;;5003020;28;8895;-55
2022/09/30 09:58:02;;;;;;;;;6.00;6.00;20.10;99.90;;;;;;4977197;28;8928;-56
2022/09/30 10:03:21;;;;;;;;;4.00;4.00;20.00;99.90;;;;;;4997568;28;9007;-62
2022/09/30 10:06:03;;;;;;;;;5.00;5.00;20.00;99.90;;;;;;4997231;28;8907;-61
2022/09/30 10:08:39;;;;;;;;;4.00;4.00;20.00;99.90;;;;;;4999627;28;8848;-61
2022/09/30 10:11:21;;;;;;;;;3.25;3.25;20.00;99.90;;;;;;4994144;28;8837;-61
2022/09/30 10:13:57;;;;;;;;;4.25;4.25;20.00;99.90;;;;;;4994941;28;8888;-61
2022/09/30 10:16:37;;;;;;;;;4.00;4.00;19.90;99.90;;;;;;4998578;28;8827;-61
2022/09/30 10:19:27;;;;;;;;;4.75;4.75;19.70;99.90;;;;;;4995956;28;8838;-56
2022/09/30 10:22:10;;;;;;;;;4.25;4.25;19.80;99.90;;;;;;4977096;28;10158;-55
2022/09/30 10:24:43;;;;;;;;;4.00;4.00;19.90;99.90;;;;;;4990772;28;8881;-58
2022/09/30 10:27:30;;;;;;;;;4.50;4.50;19.70;99.90;;;;;;5004185;28;8904;-57
2022/09/30 10:30:00;;;;;;;;;4.33;4.33;19.80;99.90;;;;;;4981719;28;8900;-57
2022/09/30 10:32:35;;;;;;;;;3.25;3.25;19.70;99.90;;;;;;4993469;28;8977;-55
2022/09/30 10:35:20;;;;;;;;;3.50;3.50;19.70;99.90;;;;;;4975715;28;8879;-54
2022/09/30 10:37:54;;;;;;;;;4.00;4.00;19.70;99.90;;;;;;4978006;28;8823;-61
2022/09/30 10:40:28;;;;;;;;;3.25;3.25;19.60;99.90;;;;;;4992280;28;8842;-61
2022/09/30 10:42:58;;;;;;;;;4.00;4.00;19.60;99.90;;;;;;4996310;28;8871;-61
2022/09/30 10:45:37;;;;;;;;;5.67;5.67;19.60;99.90;;;;;;4997233;28;9699;-61
2022/09/30 10:48:15;;;;;;;;;4.00;4.00;19.50;99.90;;;;;;4975069;28;9680;-61
2022/09/30 10:51:00;;;;;;;;;5.00;5.00;19.50;99.90;;;;;;4995270;28;8861;-62
2022/09/30 10:53:34;;;;;;;;;3.25;3.25;19.60;99.90;;;;;;4976465;28;8985;-56
2022/09/30 10:56:06;;;;;;;;;4.50;4.50;19.50;99.90;;;;;;4993797;28;8853;-56
2022/09/30 10:59:00;;;;;;;;;4.75;4.75;19.50;99.90;;;;;;4998488;28;8916;-56
2022/09/30 11:01:39;;;;;;;;;4.33;4.33;19.40;99.90;;;;;;4984136;28;8841;-56
2022/09/30 11:04:33;;;;;;;;;3.50;3.50;19.40;99.90;;;;;;5000091;28;8932;-62
2022/09/30 11:07:25;;;;;;;;;4.00;4.00;19.40;99.90;;;;;;4998028;28;8860;-61
2022/09/30 11:10:10;;;;;;;;;3.00;3.00;19.30;99.90;;;;;;5001437;28;8973;-55
2022/09/30 11:12:58;;;;;;;;;4.50;4.50;19.20;99.90;;;;;;4982732;28;8869;-60
2022/09/30 11:15:46;;;;;;;;;3.00;3.00;19.10;99.90;;;;;;4994809;28;8830;-61
2022/09/30 11:18:33;;;;;;;;;5.00;5.00;18.90;99.90;;;;;;5001443;28;9060;-61
2022/09/30 11:21:43;;;;;;;;;3.67;3.67;19.10;99.90;;;;;;4981216;28;8995;-61
2022/09/30 11:24:37;;;;;;;;;4.33;4.33;18.90;99.90;;;;;;4982630;28;9017;-55
2022/09/30 11:27:18;;;;;;;;;6.00;5.00;18.90;99.90;;;;;;4998445;28;9186;-55
2022/09/30 11:30:17;;;;;;;;;4.00;4.00;19.00;99.90;;;;;;5001001;28;9087;-62
2022/09/30 11:33:20;;;;;;;;;5.33;5.33;18.90;99.90;;;;;;5002722;28;9064;-60
2022/09/30 11:36:00;;;;;;;;;4.00;4.00;18.90;99.90;;;;;;4976086;28;9180;-61
2022/09/30 11:39:06;;;;;;;;;5.00;5.00;19.00;99.90;;;;;;5005435;28;9212;-61
2022/09/30 11:41:44;;;;;;;;;4.00;4.00;18.80;99.90;;;;;;4991594;28;9061;-60
2022/09/30 11:44:33;;;;;;;;;4.00;4.00;18.70;99.90;;;;;;5002505;28;9019;-61
2022/09/30 11:47:28;;;;;;;;;3.33;3.33;18.70;99.90;;;;;;4976638;28;9896;-60
2022/09/30 11:50:19;;;;;;;;;5.33;5.33;18.70;99.90;;;;;;4980435;28;9192;-61
2022/09/30 11:53:13;;;;;;;;;5.00;5.00;18.50;99.90;;;;;;4996381;28;9077;-61
2022/09/30 11:56:19;;;;;;;;;5.67;5.67;18.50;99.90;;;;;;4998696;28;9315;-60
2022/09/30 11:58:54;;;;;;;;;4.00;4.00;18.40;99.90;;;;;;5002599;28;9341;-55
2022/09/30 12:01:36;;;;;;;;;5.33;5.00;18.40;99.90;;;;;;4978677;28;9087;-55
2022/09/30 12:04:21;;;;;;;;;4.67;4.67;18.30;99.90;;;;;;5004901;28;9013;-61
2022/09/30 12:07:03;;;;;;;;;4.00;4.00;18.20;99.90;;;;;;4983337;28;9046;-63
2022/09/30 12:10:03;;;;;;;;;4.33;4.33;18.10;99.90;;;;;;4999555;28;9176;-53
2022/09/30 12:12:35;;;;;;;;;3.00;3.00;18.00;99.90;;;;;;4999989;28;9669;-53
2022/09/30 12:15:08;;;;;;;;;3.00;3.00;18.10;99.90;;;;;;5001262;28;9103;-62
2022/09/30 12:17:48;;;;;;;;;5.00;5.00;18.00;99.90;;;;;;5001314;28;9094;-60
2022/09/30 12:20:42;;;;;;;;;4.67;4.67;17.80;99.90;;;;;;4995422;28;9378;-55
2022/09/30 12:23:19;;;;;;;;;4.67;4.67;17.60;99.90;;;;;;5001550;28;9209;-56
2022/09/30 12:25:56;;;;;;;;;4.00;4.00;17.60;99.90;;;;;;5004765;28;9376;-56
2022/09/30 12:32:10;;;;;;;;;4.00;4.00;17.50;99.90;;;;;;4950258;28;9159;-60
2022/09/30 12:35:00;;;;;;;;;4.67;4.67;17.40;99.90;;;;;;4949076;28;9206;-56
2022/09/30 12:37:48;;;;;;;;;4.33;4.33;17.50;99.90;;;;;;4991278;28;9157;-55
2022/09/30 12:40:44;;;;;;;;;5.67;5.67;17.40;99.90;;;;;;5007471;28;9277;-61
2022/09/30 12:43:40;;;;;;;;;4.00;4.00;17.40;99.90;;;;;;4999133;28;9320;-60
2022/09/30 12:46:17;;;;;;;;;6.00;6.00;17.30;99.90;;;;;;5003664;28;9528;-61
2022/09/30 12:49:02;;;;;;;;;3.00;3.00;17.40;99.90;;;;;;5005587;28;9479;-62
2022/09/30 12:51:39;;;;;;;;;4.00;4.00;17.40;99.90;;;;;;5007830;28;9432;-61
2022/09/30 12:54:20;;;;;;;;;6.33;5.00;17.50;99.90;;;;;;4976893;28;9351;-52
2022/09/30 12:56:59;;;;;;;;;3.67;3.67;17.50;99.90;;;;;;4994639;28;9482;-58
2022/09/30 12:59:51;;;;;;;;;3.00;3.00;17.50;99.90;;;;;;4994571;28;9454;-61
2022/09/30 13:02:35;;;;;;;;;4.00;4.00;17.60;99.90;;;;;;5004605;28;9827;-61
2022/09/30 13:05:32;;;;;;;;;4.33;4.33;17.70;99.90;;;;;;5005647;28;9328;-61
2022/09/30 13:08:05;;;;;;;;;5.00;5.00;17.90;99.90;;;;;;5007491;28;9584;-55
2022/09/30 13:10:47;;;;;;;;;3.33;3.33;18.00;99.90;;;;;;4992087;28;9427;-58
2022/09/30 13:13:23;;;;;;;;;5.00;5.00;18.00;99.90;;;;;;4985731;28;9433;-52
2022/09/30 13:16:05;;;;;;;;;3.33;3.33;18.30;99.90;;;;;;5003487;28;9583;-58
2022/09/30 13:18:35;;;;;;;;;5.67;5.67;18.30;99.90;;;;;;4994409;28;10288;-60
2022/09/30 13:21:09;;;;;;;;;3.00;3.00;18.40;99.90;;;;;;4996069;28;9318;-61
2022/09/30 13:23:40;;;;;;;;;5.00;3.67;18.60;99.90;;;;;;5000841;28;9344;-55
2022/09/30 13:26:26;;;;;;;;;5.00;4.00;18.50;99.90;;;;;;5001098;28;9480;-54
2022/09/30 13:29:02;;;;;;;;;1.33;1.33;18.40;99.90;;;;;;4998981;28;9418;-61
2022/09/30 13:31:53;;;;;;;;;4.00;4.00;18.40;99.90;;;;;;4997605;28;9037;-60
2022/09/30 13:34:31;;;;;;;;;3.33;3.33;18.50;99.90;;;;;;4997474;28;10462;-55
2022/09/30 13:37:33;;;;;;;;;6.00;4.00;18.60;99.90;;;;;;4981696;28;9167;-56
2022/09/30 13:40:16;;;;;;;;;2.67;2.67;18.80;99.90;;;;;;4996162;28;9237;-61
2022/09/30 13:42:54;;;;;;;;;4.00;4.00;18.80;99.90;;;;;;4999126;28;9307;-59
2022/09/30 13:45:38;;;;;;;;;5.00;5.00;18.90;99.90;;;;;;5004599;28;9235;-61
2022/09/30 13:48:19;;;;;;;;;3.67;3.67;19.10;99.90;;;;;;4999334;28;9237;-60
2022/09/30 13:50:52;;;;;;;;;5.00;5.00;19.10;99.90;;;;;;4994118;28;9323;-61
2022/09/30 13:53:27;;;;;;;;;4.33;4.33;19.10;99.90;;;;;;5000483;28;9075;-60
2022/09/30 13:56:00;;;;;;;;;6.00;6.00;19.20;99.90;;;;;;5004786;28;9804;-61
2022/09/30 13:59:04;;;;;;;;;3.33;3.33;19.30;99.90;;;;;;5000633;28;9475;-60
2022/09/30 14:01:55;;;;;;;;;3.00;3.00;19.30;99.90;;;;;;4997294;28;9109;-59
2022/09/30 14:05:14;;;;;;;;;4.00;3.00;19.50;99.90;;;;;;4997177;28;9751;-56
2022/09/30 14:08:08;;;;;;;;;2.00;2.00;19.60;99.90;;;;;;4999933;28;9021;-59
2022/09/30 14:11:04;;;;;;;;;2.00;2.00;19.60;99.90;;;;;;4993755;28;9038;-61
2022/09/30 14:14:17;;;;;;;;;3.00;3.00;19.70;99.90;;;;;;4996207;28;8867;-61